Time;durP1;ratioP1;P1;durP2;ratioP2;P2;SDS_P1;SDS_P2;PMS_P1;PMS_P2;Temp;Humidity;BMP_temperature;BMP_pressure;BME280_temperature;BME280_humidity;BME280_pressure;Samples;Min_cycle;Max_cycle;Signal;HPM_P1;HPM_P2
2023/03/17 00:02:15;;;;;;;7.17;5.53;;;;;;;4.10;100.00;99820.06;5040355;28;20332;-61
2023/03/17 00:04:40;;;;;;;8.87;6.47;;;;;;;4.08;100.00;99825.22;5082094;28;20169;-60
2023/03/17 00:07:05;;;;;;;7.63;6.10;;;;;;;4.11;100.00;99812.38;5041443;28;20713;-61
2023/03/17 00:09:31;;;;;;;7.33;5.70;;;;;;;4.08;100.00;99816.72;5047737;28;20178;-60
2023/03/17 00:11:56;;;;;;;6.17;5.57;;;;;;;4.00;100.00;99807.63;5020859;28;20258;-63
2023/03/17 00:14:21;;;;;;;6.57;5.50;;;;;;;3.91;100.00;99815.56;5014196;28;20250;-61
2023/03/17 00:16:49;;;;;;;7.37;5.67;;;;;;;3.87;100.00;99819.91;4990618;28;20227;-61
2023/03/17 00:19:25;;;;;;;7.20;5.70;;;;;;;3.86;100.00;99822.50;5032678;28;20185;-60
2023/03/17 00:21:50;;;;;;;7.00;6.07;;;;;;;3.85;100.00;99824.19;5028388;28;20844;-61
2023/03/17 00:24:16;;;;;;;6.47;5.73;;;;;;;3.75;100.00;99812.66;5039620;28;20195;-61
2023/03/17 00:26:42;;;;;;;6.67;6.03;;;;;;;3.69;100.00;99810.28;5034916;28;20208;-61
2023/03/17 00:29:07;;;;;;;7.37;5.67;;;;;;;3.82;100.00;99813.28;5038800;28;20243;-61
2023/03/17 00:31:33;;;;;;;6.90;6.20;;;;;;;3.83;100.00;99812.41;5024858;28;20217;-60
2023/03/17 00:33:59;;;;;;;6.40;5.60;;;;;;;3.78;100.00;99814.28;5068393;28;20301;-60
2023/03/17 00:36:30;;;;;;;9.60;5.97;;;;;;;3.75;100.00;99804.19;5064989;28;20178;-61
2023/03/17 00:38:57;;;;;;;6.70;5.30;;;;;;;3.73;100.00;99806.78;5061305;28;20181;-60
2023/03/17 00:41:22;;;;;;;6.30;5.47;;;;;;;3.68;100.00;99811.16;5069578;28;20307;-61
2023/03/17 00:43:49;;;;;;;8.87;6.10;;;;;;;3.63;100.00;99813.03;5069844;28;20208;-61
2023/03/17 00:46:20;;;;;;;8.60;6.70;;;;;;;3.59;100.00;99821.66;5072014;28;20179;-62
2023/03/17 00:48:47;;;;;;;10.80;6.47;;;;;;;3.54;100.00;99814.97;5073519;28;20535;-62
2023/03/17 00:51:15;;;;;;;8.73;7.13;;;;;;;3.51;100.00;99807.44;5065458;28;20304;-61
2023/03/17 00:53:40;;;;;;;11.87;6.57;;;;;;;3.44;100.00;99808.50;5071928;28;20208;-62
2023/03/17 00:56:13;;;;;;;8.13;6.50;;;;;;;3.40;100.00;99812.03;5072221;28;20180;-61
2023/03/17 00:58:38;;;;;;;8.70;7.60;;;;;;;3.35;100.00;99804.50;5071866;28;20188;-62
2023/03/17 01:01:04;;;;;;;8.53;7.73;;;;;;;3.30;100.00;99797.88;5071421;28;20235;-61
2023/03/17 01:03:29;;;;;;;11.03;7.70;;;;;;;3.25;100.00;99789.56;5081339;28;20185;-62
2023/03/17 01:05:58;;;;;;;10.83;9.40;;;;;;;3.19;100.00;99786.34;5071984;28;20211;-62
2023/03/17 01:08:25;;;;;;;12.63;9.33;;;;;;;3.16;100.00;99783.06;5071670;28;20234;-61
2023/03/17 01:10:50;;;;;;;9.27;8.17;;;;;;;3.11;100.00;99787.44;5069156;28;20704;-62
2023/03/17 01:13:16;;;;;;;9.57;7.70;;;;;;;3.21;100.00;99789.69;5081807;28;20192;-63
2023/03/17 01:15:45;;;;;;;9.93;7.57;;;;;;;3.21;100.00;99781.19;5072998;28;20603;-62
2023/03/17 01:18:13;;;;;;;9.27;7.00;;;;;;;3.26;100.00;99778.53;5061159;28;20266;-62
2023/03/17 01:20:39;;;;;;;9.53;6.93;;;;;;;3.31;100.00;99777.53;5065959;28;20758;-62
2023/03/17 01:23:05;;;;;;;9.87;6.90;;;;;;;3.33;100.00;99787.66;5068849;28;20192;-62
2023/03/17 01:25:31;;;;;;;10.53;6.60;;;;;;;3.26;100.00;99773.44;5073077;28;20658;-61
2023/03/17 01:27:58;;;;;;;8.63;7.20;;;;;;;3.10;100.00;99762.91;5071471;28;20255;-61
2023/03/17 01:30:29;;;;;;;9.03;6.87;;;;;;;3.12;100.00;99754.34;5064927;28;20276;-61
2023/03/17 01:32:57;;;;;;;9.63;6.73;;;;;;;3.19;100.00;99755.84;5082113;28;20215;-60
2023/03/17 01:35:25;;;;;;;8.77;6.70;;;;;;;3.16;100.00;99750.00;5072784;28;20185;-61
2023/03/17 01:37:50;;;;;;;8.67;6.93;;;;;;;3.15;100.00;99744.09;5070143;28;20639;-62
2023/03/17 01:40:22;;;;;;;8.30;6.53;;;;;;;3.13;100.00;99742.50;5053570;28;20180;-62
2023/03/17 01:42:52;;;;;;;7.83;6.77;;;;;;;2.91;100.00;99748.19;5052955;28;20189;-61
2023/03/17 01:45:55;;;;;;;8.63;6.73;;;;;;;2.90;100.00;99746.50;5072734;28;20601;-61
2023/03/17 01:48:22;;;;;;;7.97;6.37;;;;;;;2.99;100.00;99745.41;5072621;28;20538;-65
2023/03/17 01:50:48;;;;;;;8.37;6.70;;;;;;;3.03;100.00;99742.75;5067668;28;20721;-62
2023/03/17 01:53:14;;;;;;;7.33;6.17;;;;;;;3.03;100.00;99739.38;5081414;28;20223;-61
2023/03/17 01:55:40;;;;;;;7.87;6.33;;;;;;;2.93;100.00;99733.72;5072138;28;20225;-61
2023/03/17 01:58:06;;;;;;;9.17;6.33;;;;;;;2.90;100.00;99741.41;5072582;28;20242;-61
2023/03/17 02:00:32;;;;;;;8.47;7.20;;;;;;;2.81;100.00;99741.69;5065623;28;20247;-61
2023/03/17 02:02:57;;;;;;;8.17;6.43;;;;;;;2.72;100.00;99745.34;5083431;28;20177;-61
2023/03/17 02:05:28;;;;;;;8.13;6.83;;;;;;;2.75;100.00;99750.31;5072004;28;20314;-61
2023/03/17 02:07:54;;;;;;;8.67;7.33;;;;;;;2.74;100.00;99748.66;5070822;28;20227;-62
2023/03/17 02:10:23;;;;;;;11.03;7.07;;;;;;;2.77;100.00;99747.72;5062632;28;20184;-62
2023/03/17 02:12:55;;;;;;;7.07;6.37;;;;;;;2.56;100.00;99745.75;5084446;28;20280;-62
2023/03/17 02:15:21;;;;;;;8.90;6.73;;;;;;;2.62;100.00;99749.84;5070606;28;20176;-62
2023/03/17 02:17:47;;;;;;;7.57;6.03;;;;;;;2.57;100.00;99749.13;5070734;28;20646;-62
2023/03/17 02:20:15;;;;;;;7.23;6.53;;;;;;;2.51;100.00;99741.69;5062702;28;20251;-62
2023/03/17 02:22:48;;;;;;;7.70;7.00;;;;;;;2.46;100.00;99736.72;5074608;28;20197;-61
2023/03/17 02:25:16;;;;;;;7.67;6.33;;;;;;;2.44;100.00;99730.03;5069774;28;20180;-62
2023/03/17 02:27:45;;;;;;;7.33;6.33;;;;;;;2.51;100.00;99731.53;5071924;28;20646;-62
2023/03/17 02:30:12;;;;;;;8.30;6.87;;;;;;;2.48;100.00;99722.28;5062477;28;20237;-62
2023/03/17 02:32:38;;;;;;;11.17;6.43;;;;;;;2.46;100.00;99713.88;5085226;28;20208;-61
2023/03/17 02:35:06;;;;;;;9.57;7.00;;;;;;;2.50;100.00;99704.47;5070502;28;20180;-61
2023/03/17 02:37:32;;;;;;;8.40;6.87;;;;;;;2.36;100.00;99699.78;5071945;28;20207;-62
2023/03/17 02:39:59;;;;;;;8.30;7.27;;;;;;;2.30;100.00;99698.22;5071629;28;20549;-62
2023/03/17 02:42:25;;;;;;;7.83;6.10;;;;;;;2.36;100.00;99687.91;5075763;28;20344;-62
2023/03/17 02:44:51;;;;;;;7.47;6.73;;;;;;;2.42;100.00;99686.91;5071483;28;20268;-62
2023/03/17 02:47:16;;;;;;;8.37;6.30;;;;;;;2.41;100.00;99687.78;5071438;28;20281;-62
2023/03/17 02:49:42;;;;;;;8.23;6.57;;;;;;;2.44;100.00;99695.28;5071531;28;20186;-62
2023/03/17 02:52:08;;;;;;;8.97;6.93;;;;;;;2.42;100.00;99699.59;5076565;28;20234;-62
2023/03/17 02:54:33;;;;;;;12.77;6.47;;;;;;;2.42;100.00;99719.91;5071272;28;20180;-62
2023/03/17 02:56:59;;;;;;;6.97;6.17;;;;;;;2.38;100.00;99713.22;5071565;28;20187;-62
2023/03/17 02:59:25;;;;;;;8.80;6.60;;;;;;;2.28;100.00;99711.81;5069972;28;20545;-61
2023/03/17 03:01:50;;;;;;;7.83;6.23;;;;;;;2.17;100.00;99702.78;5075258;28;20268;-61
2023/03/17 03:04:17;;;;;;;8.97;6.70;;;;;;;2.18;100.00;99706.16;5072478;28;20190;-62
2023/03/17 03:06:43;;;;;;;8.37;7.07;;;;;;;2.14;100.00;99702.88;5069760;28;20225;-61
2023/03/17 03:09:10;;;;;;;8.67;7.00;;;;;;;2.13;100.00;99707.97;5071406;28;20183;-62
2023/03/17 03:11:36;;;;;;;7.83;7.00;;;;;;;2.11;100.00;99705.50;5073294;28;20321;-62
2023/03/17 03:14:02;;;;;;;8.40;6.43;;;;;;;2.06;100.00;99715.75;5063720;28;20302;-61
2023/03/17 03:16:27;;;;;;;8.83;6.27;;;;;;;2.05;100.00;99718.34;5070953;28;20204;-61
2023/03/17 03:18:52;;;;;;;8.87;6.33;;;;;;;1.98;100.00;99719.34;5071290;28;20211;-62
2023/03/17 03:21:18;;;;;;;8.57;6.73;;;;;;;1.91;100.00;99723.72;5070946;28;20226;-61
2023/03/17 03:23:44;;;;;;;7.83;6.97;;;;;;;1.87;100.00;99724.69;5062833;28;20228;-61
2023/03/17 03:26:09;;;;;;;7.93;7.13;;;;;;;1.78;100.00;99731.66;5070000;28;20202;-62
2023/03/17 03:28:35;;;;;;;8.67;6.63;;;;;;;1.63;100.00;99733.75;5070737;28;20186;-62
2023/03/17 03:31:00;;;;;;;7.40;6.70;;;;;;;1.60;100.00;99729.53;5068412;28;20242;-63
2023/03/17 03:33:25;;;;;;;10.30;6.93;;;;;;;1.63;100.00;99710.91;5069126;28;20199;-63
2023/03/17 03:35:51;;;;;;;8.20;6.97;;;;;;;1.63;100.00;99709.22;5069899;28;20186;-63
2023/03/17 03:38:16;;;;;;;7.83;7.03;;;;;;;1.48;100.00;99701.94;5069722;28;20668;-63
2023/03/17 03:40:41;;;;;;;7.90;7.03;;;;;;;1.41;100.00;99697.03;5065732;28;20230;-63
2023/03/17 03:43:07;;;;;;;8.40;7.30;;;;;;;1.51;100.00;99696.81;5080685;28;20188;-62
2023/03/17 03:45:32;;;;;;;10.80;7.60;;;;;;;1.49;100.00;99699.41;5071321;28;20217;-62
2023/03/17 03:47:58;;;;;;;9.33;7.30;;;;;;;1.51;100.00;99705.25;5071007;28;20194;-62
2023/03/17 03:50:23;;;;;;;10.87;7.83;;;;;;;1.39;100.00;99708.06;5063260;28;20355;-62
2023/03/17 03:52:48;;;;;;;10.53;7.90;;;;;;;1.38;100.00;99716.56;5084960;28;20551;-62
2023/03/17 03:55:15;;;;;;;9.80;8.20;;;;;;;1.40;100.00;99714.81;5074766;28;20187;-62
2023/03/17 03:57:41;;;;;;;9.23;7.80;;;;;;;1.37;100.00;99702.22;5074645;28;20199;-63
2023/03/17 04:00:07;;;;;;;8.93;7.20;;;;;;;1.36;100.00;99698.84;5054385;28;20186;-62
2023/03/17 04:02:33;;;;;;;8.73;6.50;;;;;;;1.35;100.00;99702.22;5072161;28;20183;-62
2023/03/17 04:04:59;;;;;;;8.03;6.70;;;;;;;1.26;100.00;99710.88;5074820;28;20553;-62
2023/03/17 04:07:24;;;;;;;12.70;8.07;;;;;;;1.25;100.00;99701.63;5073074;28;20221;-62
2023/03/17 04:09:50;;;;;;;9.63;7.17;;;;;;;1.12;100.00;99696.00;5074610;28;20189;-62
2023/03/17 04:12:16;;;;;;;9.27;7.33;;;;;;;1.06;100.00;99693.59;5062134;28;20313;-63
2023/03/17 04:14:43;;;;;;;9.70;6.77;;;;;;;1.11;100.00;99685.91;5064062;28;20222;-63
2023/03/17 04:17:09;;;;;;;10.57;6.63;;;;;;;1.12;100.00;99688.38;5079670;28;20233;-63
2023/03/17 04:19:35;;;;;;;9.90;6.83;;;;;;;1.10;100.00;99692.69;5073132;28;20170;-63
2023/03/17 04:22:00;;;;;;;9.10;7.47;;;;;;;1.08;100.00;99686.81;5073286;28;20748;-63
2023/03/17 04:24:26;;;;;;;11.67;7.53;;;;;;;0.98;100.00;99690.41;5064443;28;20185;-63
2023/03/17 04:26:52;;;;;;;12.87;7.73;;;;;;;0.86;100.00;99695.75;5073998;28;20190;-63
2023/03/17 04:29:18;;;;;;;10.37;7.03;;;;;;;0.81;100.00;99703.44;5073990;28;20235;-62
2023/03/17 04:31:43;;;;;;;11.83;7.97;;;;;;;0.78;100.00;99708.53;5056111;28;20682;-63
2023/03/17 04:34:17;;;;;;;11.20;7.63;;;;;;;0.77;100.00;99710.25;5076485;28;20210;-62
2023/03/17 04:36:44;;;;;;;13.47;7.63;;;;;;;0.83;100.00;99698.31;5073572;28;20668;-63
2023/03/17 04:39:10;;;;;;;9.63;7.63;;;;;;;0.84;100.00;99702.53;5073955;28;20201;-63
2023/03/17 04:41:36;;;;;;;9.80;7.57;;;;;;;0.81;100.00;99713.56;5075889;28;20230;-63
2023/03/17 04:44:01;;;;;;;9.73;7.93;;;;;;;0.83;100.00;99732.06;5076771;28;20192;-63
2023/03/17 04:46:27;;;;;;;10.33;7.73;;;;;;;0.80;100.00;99727.91;5073413;28;20181;-63
2023/03/17 04:48:52;;;;;;;10.00;7.57;;;;;;;0.71;100.00;99728.09;5073741;28;20185;-63
2023/03/17 04:51:17;;;;;;;12.87;8.20;;;;;;;0.68;100.00;99734.91;5073281;28;20219;-63
2023/03/17 04:53:43;;;;;;;12.87;7.67;;;;;;;0.68;100.00;99728.13;5079068;28;20209;-63
2023/03/17 04:56:09;;;;;;;11.50;8.23;;;;;;;0.74;100.00;99715.34;5073542;28;20272;-63
2023/03/17 04:58:35;;;;;;;10.47;7.97;;;;;;;0.71;100.00;99714.59;5071861;28;20965;-63
2023/03/17 05:01:01;;;;;;;8.33;7.47;;;;;;;0.62;100.00;99703.81;5070824;28;20242;-62
2023/03/17 05:03:26;;;;;;;14.67;8.20;;;;;;;0.66;100.00;99714.69;5080357;28;20204;-62
2023/03/17 05:05:52;;;;;;;12.77;8.50;;;;;;;0.57;100.00;99720.78;5073236;28;20209;-62
2023/03/17 05:08:17;;;;;;;10.53;7.43;;;;;;;0.61;100.00;99726.63;5071785;28;20232;-62
2023/03/17 05:10:42;;;;;;;12.77;8.90;;;;;;;0.61;100.00;99736.75;5067487;28;20213;-62
2023/03/17 05:13:08;;;;;;;12.70;8.13;;;;;;;0.51;100.00;99731.03;5082930;28;20627;-62
2023/03/17 05:15:33;;;;;;;13.63;9.03;;;;;;;0.56;100.00;99735.97;5073117;28;20172;-63
2023/03/17 05:17:58;;;;;;;15.33;9.77;;;;;;;0.56;100.00;99736.81;5073338;28;20242;-62
2023/03/17 05:20:23;;;;;;;10.13;8.13;;;;;;;0.55;100.00;99737.69;5064540;28;20310;-63
2023/03/17 05:22:49;;;;;;;10.87;8.10;;;;;;;0.64;100.00;99736.66;5084352;28;20208;-63
2023/03/17 05:25:15;;;;;;;11.23;8.27;;;;;;;0.53;100.00;99738.56;5071476;28;20170;-62
2023/03/17 05:27:42;;;;;;;12.30;8.67;;;;;;;0.54;100.00;99743.59;5072875;28;20268;-64
2023/03/17 05:30:08;;;;;;;10.00;8.17;;;;;;;0.56;100.00;99733.44;5061974;28;20177;-64
2023/03/17 05:32:34;;;;;;;11.63;8.10;;;;;;;0.52;100.00;99732.69;5070951;28;20242;-62
2023/03/17 05:34:59;;;;;;;12.87;8.70;;;;;;;0.44;100.00;99737.88;5072716;28;20225;-64
2023/03/17 05:37:24;;;;;;;10.27;8.47;;;;;;;0.47;100.00;99735.31;5072783;28;20598;-63
2023/03/17 05:39:51;;;;;;;11.60;8.50;;;;;;;0.47;100.00;99734.44;5071189;28;20184;-63
2023/03/17 05:42:16;;;;;;;10.10;8.60;;;;;;;0.45;100.00;99729.44;5077537;28;20228;-64
2023/03/17 05:44:42;;;;;;;9.97;7.73;;;;;;;0.49;100.00;99732.75;5070855;28;20189;-62
2023/03/17 05:47:07;;;;;;;12.53;8.27;;;;;;;0.53;100.00;99724.22;5072743;28;20181;-62
2023/03/17 05:49:32;;;;;;;15.10;9.60;;;;;;;0.53;100.00;99730.97;5072449;28;20173;-62
2023/03/17 05:51:57;;;;;;;10.37;8.63;;;;;;;0.46;100.00;99728.56;5076861;28;20226;-62
2023/03/17 05:54:23;;;;;;;13.10;9.07;;;;;;;0.42;100.00;99729.50;5072509;28;20200;-62
2023/03/17 05:56:48;;;;;;;12.07;8.80;;;;;;;0.44;100.00;99730.28;5072236;28;20188;-62
2023/03/17 05:59:15;;;;;;;11.43;9.50;;;;;;;0.49;100.00;99717.56;5072152;28;20185;-61
2023/03/17 06:01:41;;;;;;;9.37;8.33;;;;;;;0.61;100.00;99724.91;5074994;28;20227;-63
2023/03/17 06:04:07;;;;;;;10.53;9.17;;;;;;;0.67;100.00;99718.91;5074478;28;20176;-63
2023/03/17 06:06:32;;;;;;;12.13;9.43;;;;;;;0.71;100.00;99723.03;5072059;28;20213;-63
2023/03/17 06:08:58;;;;;;;9.83;8.50;;;;;;;0.82;100.00;99714.38;5071990;28;20208;-63
2023/03/17 06:11:24;;;;;;;14.33;10.17;;;;;;;0.85;100.00;99711.78;5072263;28;20225;-64
2023/03/17 06:13:49;;;;;;;11.00;8.77;;;;;;;0.79;100.00;99711.06;5075550;28;20655;-64
2023/03/17 06:16:15;;;;;;;13.20;9.27;;;;;;;0.96;100.00;99704.81;5071080;28;20185;-63
2023/03/17 06:18:40;;;;;;;10.63;9.13;;;;;;;1.03;100.00;99710.56;5071916;28;20174;-64
2023/03/17 06:21:06;;;;;;;13.20;9.07;;;;;;;1.19;100.00;99709.38;5069922;28;20332;-63
2023/03/17 06:23:31;;;;;;;12.30;9.30;;;;;;;1.12;100.00;99712.91;5056718;28;20176;-64
2023/03/17 06:25:56;;;;;;;14.57;9.17;;;;;;;1.38;100.00;99719.91;5071826;28;20186;-63
2023/03/17 06:28:22;;;;;;;13.37;9.87;;;;;;;1.53;100.00;99713.66;5070170;28;20211;-62
2023/03/17 06:30:48;;;;;;;14.80;9.60;;;;;;;1.68;100.00;99725.13;5067532;28;20548;-62
2023/03/17 06:33:14;;;;;;;12.60;9.27;;;;;;;1.97;100.00;99735.44;5080625;28;20208;-62
2023/03/17 06:35:40;;;;;;;10.43;8.83;;;;;;;2.46;100.00;99728.28;5071707;28;20192;-63
2023/03/17 06:38:05;;;;;;;15.00;8.67;;;;;;;3.27;100.00;99727.63;5070224;28;20700;-62
2023/03/17 06:40:32;;;;;;;11.60;8.33;;;;;;;4.09;100.00;99731.84;5064820;28;20254;-61
2023/03/17 06:42:58;;;;;;;10.67;7.83;;;;;;;5.08;100.00;99716.41;5082597;28;20195;-61
2023/03/17 06:45:23;;;;;;;9.00;7.40;;;;;;;6.89;100.00;99713.25;5071670;28;20181;-63
2023/03/17 06:47:49;;;;;;;8.00;6.30;;;;;;;8.55;100.00;99716.34;5071444;28;20181;-62
2023/03/17 06:50:14;;;;;;;7.37;6.03;;;;;;;9.81;100.00;99721.47;5062900;28;20195;-61
2023/03/17 06:52:40;;;;;;;10.03;6.73;;;;;;;11.29;88.66;99714.31;5084309;28;20533;-61
2023/03/17 06:55:07;;;;;;;11.80;6.73;;;;;;;13.03;72.66;99713.91;5071401;28;20256;-62
2023/03/17 06:57:33;;;;;;;13.23;8.07;;;;;;;13.81;58.62;99706.63;5071495;28;20286;-63
2023/03/17 06:59:58;;;;;;;10.00;7.90;;;;;;;14.87;54.05;99706.41;5071044;28;20784;-63
2023/03/17 07:02:24;;;;;;;13.37;7.23;;;;;;;15.45;49.92;99700.94;5055068;28;20299;-63
2023/03/17 07:04:50;;;;;;;8.57;6.87;;;;;;;16.25;47.84;99709.09;5070801;28;20667;-62
2023/03/17 07:07:16;;;;;;;12.70;7.63;;;;;;;16.30;44.56;99723.31;5070683;28;20577;-63
2023/03/17 07:09:41;;;;;;;9.27;6.63;;;;;;;16.68;44.16;99715.78;5070746;28;20279;-62
2023/03/17 07:12:07;;;;;;;9.97;6.93;;;;;;;17.23;43.04;99711.94;5075611;28;20227;-62
2023/03/17 07:14:34;;;;;;;9.20;6.03;;;;;;;17.38;41.38;99717.56;5070779;28;20213;-62
2023/03/17 07:17:00;;;;;;;5.83;5.13;;;;;;;15.16;43.21;99710.09;5071246;28;20331;-62
2023/03/17 07:19:26;;;;;;;5.60;4.63;;;;;;;13.14;49.05;99712.34;5070918;28;20577;-61
2023/03/17 07:21:51;;;;;;;17.17;13.83;;;;;;;12.05;55.91;99726.66;5057578;28;20226;-62
2023/03/17 07:24:17;;;;;;;6.90;5.17;;;;;;;11.90;56.84;99724.13;5052513;28;20263;-62
2023/03/17 07:26:42;;;;;;;6.03;5.20;;;;;;;12.16;56.01;99731.94;5070955;28;20410;-62
2023/03/17 07:29:08;;;;;;;4.93;4.33;;;;;;;11.54;57.60;99714.50;5074839;28;20542;-62
2023/03/17 07:31:37;;;;;;;4.80;4.40;;;;;;;11.44;63.00;99717.66;5066463;28;20308;-61
2023/03/17 07:34:05;;;;;;;7.67;4.67;;;;;;;12.26;59.48;99712.31;5077412;28;20227;-63
2023/03/17 07:36:30;;;;;;;5.33;4.77;;;;;;;12.68;56.12;99704.31;5074426;28;20268;-63
2023/03/17 07:38:56;;;;;;;4.93;4.43;;;;;;;12.74;55.02;99696.16;5074467;28;20651;-63
2023/03/17 07:41:21;;;;;;;8.57;4.77;;;;;;;13.36;53.62;99706.47;5070942;28;20566;-61
2023/03/17 07:43:46;;;;;;;5.33;4.83;;;;;;;13.15;52.73;99712.22;5062723;28;20185;-62
2023/03/17 07:46:12;;;;;;;9.17;5.17;;;;;;;12.72;53.31;99720.41;5074052;28;20208;-61
2023/03/17 07:48:40;;;;;;;8.03;5.20;;;;;;;13.83;51.79;99702.16;5072712;28;20262;-63
2023/03/17 07:51:13;;;;;;;8.37;5.70;;;;;;;13.84;49.74;99701.22;5072114;28;20219;-62
2023/03/17 07:53:39;;;;;;;7.70;4.80;;;;;;;13.15;50.61;99703.66;5080496;28;20207;-62
2023/03/17 07:56:04;;;;;;;7.50;5.03;;;;;;;12.89;53.53;99698.59;5074764;28;20256;-61
2023/03/17 07:58:30;;;;;;;9.13;5.30;;;;;;;12.79;52.90;99695.00;5074534;28;20177;-61
2023/03/17 08:00:56;;;;;;;4.83;4.33;;;;;;;12.17;56.33;99702.66;5059192;28;20583;-60
2023/03/17 08:03:21;;;;;;;7.80;5.37;;;;;;;11.84;60.29;99697.97;5080519;28;20176;-61
2023/03/17 08:05:56;;;;;;;7.73;5.00;;;;;;;11.51;64.47;99694.94;5074629;28;20183;-60
2023/03/17 08:08:26;;;;;;;7.23;5.40;;;;;;;11.55;63.11;99690.41;5074581;28;20235;-62
2023/03/17 08:10:51;;;;;;;6.93;5.40;;;;;;;11.93;61.28;99687.03;5071001;28;20215;-61
2023/03/17 08:13:17;;;;;;;8.37;5.27;;;;;;;11.27;64.47;99690.41;5072613;28;20538;-61
2023/03/17 08:15:43;;;;;;;8.70;6.27;;;;;;;11.70;64.97;99680.84;5065883;28;20232;-61
2023/03/17 08:18:08;;;;;;;10.77;5.47;;;;;;;11.33;64.91;99678.09;5072872;28;20323;-61
2023/03/17 08:20:35;;;;;;;8.43;5.50;;;;;;;11.28;66.86;99680.94;5067752;28;20219;-61
2023/03/17 08:23:00;;;;;;;11.90;9.43;;;;;;;11.58;69.49;99692.75;5071889;28;20263;-61
2023/03/17 08:25:26;;;;;;;6.53;5.03;;;;;;;11.51;67.29;99696.66;5074768;28;20267;-61
2023/03/17 08:27:52;;;;;;;6.03;5.33;;;;;;;11.20;69.50;99689.19;5074004;28;20283;-60
2023/03/17 08:30:19;;;;;;;10.07;6.23;;;;;;;11.05;71.14;99693.53;5044111;28;20298;-61
2023/03/17 08:32:45;;;;;;;9.27;5.90;;;;;;;10.58;76.98;99699.88;5086405;28;20228;-60
2023/03/17 08:35:14;;;;;;;7.10;6.40;;;;;;;10.68;79.01;99697.56;5072625;28;20212;-60
2023/03/17 08:37:43;;;;;;;6.23;5.07;;;;;;;10.92;74.88;99697.81;5074081;28;20184;-60
2023/03/17 08:40:12;;;;;;;8.20;5.60;;;;;;;10.93;73.86;99699.47;5061817;28;20548;-61
2023/03/17 08:42:37;;;;;;;9.97;5.70;;;;;;;11.25;75.91;99696.59;5058294;28;20185;-60
2023/03/17 08:45:05;;;;;;;7.90;4.90;;;;;;;11.41;73.05;99688.69;5072609;28;20654;-62
2023/03/17 08:47:31;;;;;;;6.30;5.70;;;;;;;11.72;71.40;99684.13;5073889;28;20189;-62
2023/03/17 08:49:59;;;;;;;7.03;5.33;;;;;;;11.23;71.63;99681.25;5073427;28;20203;-60
2023/03/17 08:52:24;;;;;;;9.20;5.83;;;;;;;11.06;76.88;99678.91;5061485;28;20654;-60
2023/03/17 08:54:50;;;;;;;7.63;5.70;;;;;;;11.43;71.33;99681.72;5073776;28;20196;-59
2023/03/17 08:57:16;;;;;;;7.20;5.00;;;;;;;11.88;71.27;99677.03;5072144;28;20180;-60
2023/03/17 08:59:41;;;;;;;6.20;5.40;;;;;;;12.17;67.02;99673.44;5073477;28;20222;-61
2023/03/17 09:02:09;;;;;;;7.87;5.47;;;;;;;12.07;67.10;99675.84;5078221;28;20307;-60
2023/03/17 09:04:35;;;;;;;8.33;5.63;;;;;;;12.12;67.30;99663.47;5055576;28;20168;-60
2023/03/17 09:07:01;;;;;;;5.90;5.30;;;;;;;12.44;69.80;99660.44;5073043;28;20585;-61
2023/03/17 09:09:27;;;;;;;6.93;5.93;;;;;;;12.17;66.35;99663.97;5073415;28;20279;-61
2023/03/17 09:11:52;;;;;;;6.80;5.57;;;;;;;12.26;68.63;99657.34;5061344;28;20315;-61
2023/03/17 09:14:17;;;;;;;9.03;6.20;;;;;;;11.64;72.34;99653.72;5063668;28;20216;-61
2023/03/17 09:16:43;;;;;;;7.03;5.70;;;;;;;11.94;69.54;99657.75;5061248;28;20247;-62
2023/03/17 09:19:08;;;;;;;9.03;5.90;;;;;;;12.15;71.87;99647.75;5069880;28;20176;-61
2023/03/17 09:21:33;;;;;;;10.40;5.83;;;;;;;12.13;70.91;99654.81;5074823;28;20223;-60
2023/03/17 09:23:59;;;;;;;7.67;5.60;;;;;;;12.55;69.21;99651.91;5062659;28;20270;-61
2023/03/17 09:26:25;;;;;;;6.97;5.63;;;;;;;12.66;67.87;99644.25;5072953;28;20298;-62
2023/03/17 09:28:51;;;;;;;8.87;6.13;;;;;;;12.51;67.76;99648.72;5072839;28;20168;-60
2023/03/17 09:31:16;;;;;;;8.37;6.23;;;;;;;13.24;63.91;99641.81;5064620;28;20761;-61
2023/03/17 09:33:41;;;;;;;9.23;6.07;;;;;;;12.69;65.03;99646.63;5070522;28;20311;-60
2023/03/17 09:36:09;;;;;;;8.27;6.30;;;;;;;11.93;72.24;99644.06;5072893;28;20208;-60
2023/03/17 09:38:34;;;;;;;8.03;5.83;;;;;;;12.08;77.25;99644.78;5072527;28;20177;-59
2023/03/17 09:41:14;;;;;;;10.13;6.50;;;;;;;12.30;73.51;99642.50;5069079;28;20277;-60
2023/03/17 09:44:05;;;;;;;7.97;6.50;;;;;;;12.15;73.20;99636.63;5068029;28;20532;-61
2023/03/17 09:46:56;;;;;;;9.33;5.67;;;;;;;12.21;74.30;99631.88;5072638;28;20188;-61
2023/03/17 09:49:40;;;;;;;7.77;5.73;;;;;;;12.21;73.81;99634.44;5072482;28;20226;-60
2023/03/17 09:52:15;;;;;;;6.53;5.73;;;;;;;13.01;70.19;99632.34;5077446;28;20675;-61
2023/03/17 09:54:41;;;;;;;6.87;5.40;;;;;;;12.43;67.90;99633.78;5059239;28;20196;-60
2023/03/17 09:57:29;;;;;;;11.33;6.23;;;;;;;12.78;69.34;99637.41;5072613;28;20188;-62
2023/03/17 10:00:05;;;;;;;10.13;6.23;;;;;;;12.75;68.70;99629.88;5072533;28;20574;-61
2023/03/17 10:02:32;;;;;;;7.77;6.10;;;;;;;13.06;70.42;99630.25;5060099;28;20357;-61
2023/03/17 10:05:11;;;;;;;6.47;5.67;;;;;;;12.62;72.49;99639.44;5072561;28;20188;-60
2023/03/17 10:07:47;;;;;;;7.93;5.97;;;;;;;12.23;74.51;99645.50;5059029;28;20216;-61
2023/03/17 10:10:52;;;;;;;9.77;5.87;;;;;;;12.68;74.95;99641.56;5063142;28;20676;-59
2023/03/17 10:13:53;;;;;;;7.93;6.30;;;;;;;13.01;71.48;99630.59;5080660;28;20273;-61
2023/03/17 10:16:26;;;;;;;9.70;5.97;;;;;;;12.91;69.71;99635.59;5063899;28;20275;-61
2023/03/17 10:19:05;;;;;;;7.87;5.67;;;;;;;12.89;72.51;99634.88;5070684;28;20180;-62
2023/03/17 10:21:33;;;;;;;7.10;5.93;;;;;;;13.43;67.43;99627.59;5061551;28;20317;-62
2023/03/17 10:24:02;;;;;;;6.50;5.63;;;;;;;13.29;66.63;99631.16;5062511;28;20177;-61
2023/03/17 10:26:40;;;;;;;6.77;5.80;;;;;;;13.07;68.74;99622.41;5071340;28;20203;-61
2023/03/17 10:29:16;;;;;;;8.40;5.67;;;;;;;12.83;72.85;99616.44;5071949;28;20269;-68
2023/03/17 10:31:42;;;;;;;7.50;6.03;;;;;;;13.48;68.41;99616.91;5067129;28;20227;-64
2023/03/17 10:34:31;;;;;;;7.53;6.10;;;;;;;13.38;67.06;99611.59;5073429;28;20242;-64
2023/03/17 10:37:23;;;;;;;8.53;6.20;;;;;;;13.91;65.28;99610.28;5071259;28;20202;-65
2023/03/17 10:39:54;;;;;;;9.50;6.17;;;;;;;14.24;63.11;99608.59;5057527;28;20193;-64
2023/03/17 10:42:23;;;;;;;7.70;6.37;;;;;;;14.17;59.86;99610.84;5047719;28;20644;-63
2023/03/17 10:44:52;;;;;;;7.53;5.90;;;;;;;14.13;62.25;99618.03;5058309;28;20269;-63
2023/03/17 10:47:19;;;;;;;9.87;6.37;;;;;;;14.43;64.00;99620.94;5059681;28;20182;-62
2023/03/17 10:49:45;;;;;;;8.43;6.13;;;;;;;14.10;62.86;99625.19;5062515;28;20229;-63
2023/03/17 10:52:19;;;;;;;9.83;5.83;;;;;;;13.95;61.77;99617.66;5058044;28;20746;-62
2023/03/17 10:54:50;;;;;;;8.40;6.43;;;;;;;14.24;62.85;99614.63;5051472;28;20224;-63
2023/03/17 10:57:17;;;;;;;7.20;5.90;;;;;;;13.88;63.61;99608.75;5060577;28;20263;-63
2023/03/17 10:59:49;;;;;;;6.47;5.87;;;;;;;14.07;65.32;99610.75;5070214;28;20538;-64
2023/03/17 11:02:14;;;;;;;7.10;5.67;;;;;;;14.11;63.46;99606.16;5066755;28;20227;-64
2023/03/17 11:04:42;;;;;;;7.47;6.10;;;;;;;14.17;61.98;99609.06;5063374;28;20260;-63
2023/03/17 11:07:16;;;;;;;11.90;6.00;;;;;;;14.18;65.32;99602.97;5054394;28;20225;-62
2023/03/17 11:09:42;;;;;;;8.50;5.70;;;;;;;13.99;62.03;99606.16;5053384;28;20178;-62
2023/03/17 11:12:22;;;;;;;7.17;5.63;;;;;;;13.33;64.43;99593.00;5039332;28;20311;-63
2023/03/17 11:14:48;;;;;;;7.30;5.63;;;;;;;14.03;62.57;99599.81;5053018;28;20285;-64
2023/03/17 11:17:35;;;;;;;6.63;6.03;;;;;;;14.60;58.54;99594.56;5053461;28;20264;-64
2023/03/17 11:20:38;;;;;;;10.90;6.00;;;;;;;14.49;58.65;99597.19;5052244;28;20256;-63
2023/03/17 11:23:24;;;;;;;6.90;6.20;;;;;;;14.85;58.25;99590.84;5056745;28;20576;-64
2023/03/17 11:26:16;;;;;;;8.17;6.83;;;;;;;14.48;60.24;99596.34;5063985;28;20180;-64
2023/03/17 11:28:49;;;;;;;11.83;6.53;;;;;;;14.74;60.55;99588.28;5063929;28;20183;-63
2023/03/17 11:31:36;;;;;;;8.97;6.23;;;;;;;14.67;61.22;99579.38;5053801;28;20279;-64
2023/03/17 11:34:14;;;;;;;7.37;6.37;;;;;;;14.91;59.15;99580.94;5066112;28;20315;-62
2023/03/17 11:37:09;;;;;;;7.30;6.60;;;;;;;14.53;60.94;99588.22;5057164;28;20256;-62